sensor_id;sensor_type;location;lat;lon;timestamp;temperature;humidity
70830;SHT30;58451;51.550;7.208;2023-10-19T00:00:22;11.55;79.85
70830;SHT30;58451;51.550;7.208;2023-10-19T00:01:54;11.56;79.82
70830;SHT30;58451;51.550;7.208;2023-10-19T00:03:29;11.59;79.97
70830;SHT30;58451;51.550;7.208;2023-10-19T00:05:01;11.62;80.03
70830;SHT30;58451;51.550;7.208;2023-10-19T00:06:34;11.66;80.03
70830;SHT30;58451;51.550;7.208;2023-10-19T00:08:06;11.68;80.08
70830;SHT30;58451;51.550;7.208;2023-10-19T00:09:46;11.71;80.17
70830;SHT30;58451;51.550;7.208;2023-10-19T00:11:23;11.73;80.13
70830;SHT30;58451;51.550;7.208;2023-10-19T00:12:57;11.76;80.18
70830;SHT30;58451;51.550;7.208;2023-10-19T00:14:35;11.79;80.35
70830;SHT30;58451;51.550;7.208;2023-10-19T00:16:07;11.82;80.43
70830;SHT30;58451;51.550;7.208;2023-10-19T00:17:49;11.85;80.53
70830;SHT30;58451;51.550;7.208;2023-10-19T00:19:25;11.86;80.50
70830;SHT30;58451;51.550;7.208;2023-10-19T00:21:02;11.89;80.52
70830;SHT30;58451;51.550;7.208;2023-10-19T00:23:03;11.92;80.50
70830;SHT30;58451;51.550;7.208;2023-10-19T00:24:37;11.94;80.48
70830;SHT30;58451;51.550;7.208;2023-10-19T00:26:10;11.97;80.50
70830;SHT30;58451;51.550;7.208;2023-10-19T00:27:50;12.01;80.57
70830;SHT30;58451;51.550;7.208;2023-10-19T00:29:22;12.04;80.57
70830;SHT30;58451;51.550;7.208;2023-10-19T00:31:04;12.06;80.57
70830;SHT30;58451;51.550;7.208;2023-10-19T00:32:40;12.08;80.57
70830;SHT30;58451;51.550;7.208;2023-10-19T00:34:12;12.11;80.70
70830;SHT30;58451;51.550;7.208;2023-10-19T00:35:48;12.11;80.92
70830;SHT30;58451;51.550;7.208;2023-10-19T00:37:31;12.13;80.73
70830;SHT30;58451;51.550;7.208;2023-10-19T00:39:04;12.15;80.75
70830;SHT30;58451;51.550;7.208;2023-10-19T00:40:51;12.17;80.75
70830;SHT30;58451;51.550;7.208;2023-10-19T00:42:25;12.20;80.80
70830;SHT30;58451;51.550;7.208;2023-10-19T00:44:01;12.22;80.73
70830;SHT30;58451;51.550;7.208;2023-10-19T00:45:42;12.25;80.75
70830;SHT30;58451;51.550;7.208;2023-10-19T00:47:18;12.27;80.77
70830;SHT30;58451;51.550;7.208;2023-10-19T00:48:56;12.28;80.78
70830;SHT30;58451;51.550;7.208;2023-10-19T00:50:31;12.30;80.78
70830;SHT30;58451;51.550;7.208;2023-10-19T00:52:03;12.34;80.83
70830;SHT30;58451;51.550;7.208;2023-10-19T00:53:43;12.38;80.88
70830;SHT30;58451;51.550;7.208;2023-10-19T00:55:16;12.41;80.93
70830;SHT30;58451;51.550;7.208;2023-10-19T00:56:53;12.45;80.93
70830;SHT30;58451;51.550;7.208;2023-10-19T00:58:30;12.48;80.92
70830;SHT30;58451;51.550;7.208;2023-10-19T01:00:07;12.52;80.92
70830;SHT30;58451;51.550;7.208;2023-10-19T01:01:53;12.55;81.05
70830;SHT30;58451;51.550;7.208;2023-10-19T01:05:31;12.62;81.02
70830;SHT30;58451;51.550;7.208;2023-10-19T01:07:09;12.67;81.40
70830;SHT30;58451;51.550;7.208;2023-10-19T01:08:54;12.72;81.88
70830;SHT30;58451;51.550;7.208;2023-10-19T01:10:26;12.76;81.60
70830;SHT30;58451;51.550;7.208;2023-10-19T01:12:03;12.80;81.48
70830;SHT30;58451;51.550;7.208;2023-10-19T01:13:53;12.84;81.42
70830;SHT30;58451;51.550;7.208;2023-10-19T01:15:28;12.88;81.32
70830;SHT30;58451;51.550;7.208;2023-10-19T01:16:59;12.91;81.32
70830;SHT30;58451;51.550;7.208;2023-10-19T01:18:33;12.94;81.28
70830;SHT30;58451;51.550;7.208;2023-10-19T01:20:11;12.97;81.25
70830;SHT30;58451;51.550;7.208;2023-10-19T01:21:50;13.00;81.22
70830;SHT30;58451;51.550;7.208;2023-10-19T01:23:30;13.03;81.77
70830;SHT30;58451;51.550;7.208;2023-10-19T01:25:04;13.05;81.82
70830;SHT30;58451;51.550;7.208;2023-10-19T01:26:42;13.08;81.55
70830;SHT30;58451;51.550;7.208;2023-10-19T01:28:14;13.10;81.47
70830;SHT30;58451;51.550;7.208;2023-10-19T01:29:48;13.12;81.55
70830;SHT30;58451;51.550;7.208;2023-10-19T01:31:33;13.15;81.50
70830;SHT30;58451;51.550;7.208;2023-10-19T01:33:10;13.17;81.45
70830;SHT30;58451;51.550;7.208;2023-10-19T01:34:47;13.20;81.40
70830;SHT30;58451;51.550;7.208;2023-10-19T01:36:19;13.21;81.38
70830;SHT30;58451;51.550;7.208;2023-10-19T01:37:51;13.24;81.30
70830;SHT30;58451;51.550;7.208;2023-10-19T01:39:22;13.27;81.30
70830;SHT30;58451;51.550;7.208;2023-10-19T01:40:54;13.29;81.33
70830;SHT30;58451;51.550;7.208;2023-10-19T01:42:27;13.30;81.42
70830;SHT30;58451;51.550;7.208;2023-10-19T01:44:03;13.34;81.35
70830;SHT30;58451;51.550;7.208;2023-10-19T01:45:38;13.35;81.32
70830;SHT30;58451;51.550;7.208;2023-10-19T01:47:10;13.37;81.32
70830;SHT30;58451;51.550;7.208;2023-10-19T01:48:42;13.38;81.33
70830;SHT30;58451;51.550;7.208;2023-10-19T01:50:18;13.40;81.25
70830;SHT30;58451;51.550;7.208;2023-10-19T01:51:52;13.41;81.23
70830;SHT30;58451;51.550;7.208;2023-10-19T01:53:25;13.42;81.27
70830;SHT30;58451;51.550;7.208;2023-10-19T01:54:57;13.44;81.33
70830;SHT30;58451;51.550;7.208;2023-10-19T01:56:39;13.44;81.32
70830;SHT30;58451;51.550;7.208;2023-10-19T01:58:13;13.45;81.23
70830;SHT30;58451;51.550;7.208;2023-10-19T01:59:46;13.48;81.30
70830;SHT30;58451;51.550;7.208;2023-10-19T02:01:18;13.48;81.27
70830;SHT30;58451;51.550;7.208;2023-10-19T02:03:00;13.50;81.22
70830;SHT30;58451;51.550;7.208;2023-10-19T02:04:36;13.51;81.22
70830;SHT30;58451;51.550;7.208;2023-10-19T02:06:09;13.52;81.20
70830;SHT30;58451;51.550;7.208;2023-10-19T02:07:49;13.53;81.25
70830;SHT30;58451;51.550;7.208;2023-10-19T02:09:20;13.55;81.28
70830;SHT30;58451;51.550;7.208;2023-10-19T02:10:57;13.58;81.35
70830;SHT30;58451;51.550;7.208;2023-10-19T02:12:33;13.58;81.38
70830;SHT30;58451;51.550;7.208;2023-10-19T02:14:05;13.60;81.35
70830;SHT30;58451;51.550;7.208;2023-10-19T02:15:45;13.64;81.35
70830;SHT30;58451;51.550;7.208;2023-10-19T02:17:17;13.66;81.35
70830;SHT30;58451;51.550;7.208;2023-10-19T02:18:50;13.68;81.45
70830;SHT30;58451;51.550;7.208;2023-10-19T02:20:23;13.70;81.43
70830;SHT30;58451;51.550;7.208;2023-10-19T02:22:01;13.73;81.43
70830;SHT30;58451;51.550;7.208;2023-10-19T02:23:43;13.75;81.50
70830;SHT30;58451;51.550;7.208;2023-10-19T02:25:14;13.78;81.52
70830;SHT30;58451;51.550;7.208;2023-10-19T02:26:48;13.81;81.55
70830;SHT30;58451;51.550;7.208;2023-10-19T02:28:25;13.83;81.65
70830;SHT30;58451;51.550;7.208;2023-10-19T02:30:03;13.87;81.70
70830;SHT30;58451;51.550;7.208;2023-10-19T02:31:39;13.89;81.80
70830;SHT30;58451;51.550;7.208;2023-10-19T02:33:12;13.93;81.88
70830;SHT30;58451;51.550;7.208;2023-10-19T02:34:44;13.97;81.97
70830;SHT30;58451;51.550;7.208;2023-10-19T02:36:20;14.01;81.97
70830;SHT30;58451;51.550;7.208;2023-10-19T02:37:52;14.03;81.97
70830;SHT30;58451;51.550;7.208;2023-10-19T02:39:24;14.07;81.93
70830;SHT30;58451;51.550;7.208;2023-10-19T02:40:59;14.10;81.85
70830;SHT30;58451;51.550;7.208;2023-10-19T02:42:31;14.12;81.98
70830;SHT30;58451;51.550;7.208;2023-10-19T02:44:07;14.15;81.92
70830;SHT30;58451;51.550;7.208;2023-10-19T02:45:42;14.19;81.92
70830;SHT30;58451;51.550;7.208;2023-10-19T02:47:19;14.22;81.83
70830;SHT30;58451;51.550;7.208;2023-10-19T02:48:51;14.23;82.20
70830;SHT30;58451;51.550;7.208;2023-10-19T02:50:22;14.27;82.60
70830;SHT30;58451;51.550;7.208;2023-10-19T02:51:57;14.28;82.35
70830;SHT30;58451;51.550;7.208;2023-10-19T02:53:35;14.31;82.12
70830;SHT30;58451;51.550;7.208;2023-10-19T02:55:09;14.33;82.07
70830;SHT30;58451;51.550;7.208;2023-10-19T02:56:41;14.35;82.02
70830;SHT30;58451;51.550;7.208;2023-10-19T02:58:14;14.36;81.90
70830;SHT30;58451;51.550;7.208;2023-10-19T02:59:46;14.38;81.88
70830;SHT30;58451;51.550;7.208;2023-10-19T03:01:19;14.39;81.87
70830;SHT30;58451;51.550;7.208;2023-10-19T03:02:56;14.40;81.85
70830;SHT30;58451;51.550;7.208;2023-10-19T03:04:28;14.41;81.77
70830;SHT30;58451;51.550;7.208;2023-10-19T03:06:01;14.42;81.70
70830;SHT30;58451;51.550;7.208;2023-10-19T03:07:35;14.44;81.63
70830;SHT30;58451;51.550;7.208;2023-10-19T03:09:07;14.44;81.60
70830;SHT30;58451;51.550;7.208;2023-10-19T03:10:58;14.47;81.57
70830;SHT30;58451;51.550;7.208;2023-10-19T03:12:36;14.47;81.50
70830;SHT30;58451;51.550;7.208;2023-10-19T03:14:08;14.48;81.48
70830;SHT30;58451;51.550;7.208;2023-10-19T03:15:41;14.48;81.48
70830;SHT30;58451;51.550;7.208;2023-10-19T03:17:14;14.50;81.43
70830;SHT30;58451;51.550;7.208;2023-10-19T03:18:47;14.50;81.40
70830;SHT30;58451;51.550;7.208;2023-10-19T03:20:19;14.52;81.33
70830;SHT30;58451;51.550;7.208;2023-10-19T03:21:55;14.51;81.38
70830;SHT30;58451;51.550;7.208;2023-10-19T03:23:27;14.53;81.32
70830;SHT30;58451;51.550;7.208;2023-10-19T03:24:59;14.53;81.32
70830;SHT30;58451;51.550;7.208;2023-10-19T03:26:52;14.55;81.30
70830;SHT30;58451;51.550;7.208;2023-10-19T03:28:26;14.55;81.23
70830;SHT30;58451;51.550;7.208;2023-10-19T03:29:59;14.56;81.27
70830;SHT30;58451;51.550;7.208;2023-10-19T03:31:33;14.57;81.23
70830;SHT30;58451;51.550;7.208;2023-10-19T03:33:15;14.58;81.22
70830;SHT30;58451;51.550;7.208;2023-10-19T03:34:49;14.59;81.22
70830;SHT30;58451;51.550;7.208;2023-10-19T03:36:23;14.59;81.35
70830;SHT30;58451;51.550;7.208;2023-10-19T03:37:56;14.59;81.27
70830;SHT30;58451;51.550;7.208;2023-10-19T03:39:33;14.60;81.30
70830;SHT30;58451;51.550;7.208;2023-10-19T03:41:10;14.61;81.35
70830;SHT30;58451;51.550;7.208;2023-10-19T03:42:42;14.63;81.33
70830;SHT30;58451;51.550;7.208;2023-10-19T03:44:16;14.64;81.28
70830;SHT30;58451;51.550;7.208;2023-10-19T03:45:56;14.65;81.22
70830;SHT30;58451;51.550;7.208;2023-10-19T03:47:30;14.68;81.22
70830;SHT30;58451;51.550;7.208;2023-10-19T03:49:08;14.69;81.17
70830;SHT30;58451;51.550;7.208;2023-10-19T03:50:43;14.70;81.15
70830;SHT30;58451;51.550;7.208;2023-10-19T03:52:16;14.72;81.20
70830;SHT30;58451;51.550;7.208;2023-10-19T03:53:48;14.73;81.18
70830;SHT30;58451;51.550;7.208;2023-10-19T03:55:26;14.75;81.17
70830;SHT30;58451;51.550;7.208;2023-10-19T03:57:00;14.76;81.20
70830;SHT30;58451;51.550;7.208;2023-10-19T03:58:37;14.77;81.22
70830;SHT30;58451;51.550;7.208;2023-10-19T04:00:11;14.77;81.23
70830;SHT30;58451;51.550;7.208;2023-10-19T04:01:51;14.80;81.30
70830;SHT30;58451;51.550;7.208;2023-10-19T04:03:22;14.79;81.22
70830;SHT30;58451;51.550;7.208;2023-10-19T04:04:56;14.81;81.10
70830;SHT30;58451;51.550;7.208;2023-10-19T04:06:29;14.81;81.17
70830;SHT30;58451;51.550;7.208;2023-10-19T04:08:01;14.82;81.12
70830;SHT30;58451;51.550;7.208;2023-10-19T04:09:38;14.83;81.18
70830;SHT30;58451;51.550;7.208;2023-10-19T04:11:28;14.83;81.03
70830;SHT30;58451;51.550;7.208;2023-10-19T04:13:04;14.85;81.00
70830;SHT30;58451;51.550;7.208;2023-10-19T04:14:40;14.85;81.05
70830;SHT30;58451;51.550;7.208;2023-10-19T04:16:13;14.86;81.02
70830;SHT30;58451;51.550;7.208;2023-10-19T04:17:46;14.88;80.95
70830;SHT30;58451;51.550;7.208;2023-10-19T04:19:20;14.88;80.90
70830;SHT30;58451;51.550;7.208;2023-10-19T04:20:52;14.88;80.85
70830;SHT30;58451;51.550;7.208;2023-10-19T04:22:24;14.88;80.90
70830;SHT30;58451;51.550;7.208;2023-10-19T04:23:56;14.87;80.90
70830;SHT30;58451;51.550;7.208;2023-10-19T04:25:28;14.88;80.83
70830;SHT30;58451;51.550;7.208;2023-10-19T04:27:01;14.88;80.80
70830;SHT30;58451;51.550;7.208;2023-10-19T04:28:33;14.89;80.85
70830;SHT30;58451;51.550;7.208;2023-10-19T04:30:16;14.90;80.82
70830;SHT30;58451;51.550;7.208;2023-10-19T04:31:54;14.91;80.82
70830;SHT30;58451;51.550;7.208;2023-10-19T04:33:26;14.93;80.82
70830;SHT30;58451;51.550;7.208;2023-10-19T04:34:59;14.92;80.80
70830;SHT30;58451;51.550;7.208;2023-10-19T04:36:31;14.93;80.78
70830;SHT30;58451;51.550;7.208;2023-10-19T04:38:05;14.94;80.80
70830;SHT30;58451;51.550;7.208;2023-10-19T04:39:39;14.96;80.72
70830;SHT30;58451;51.550;7.208;2023-10-19T04:41:11;14.96;80.70
70830;SHT30;58451;51.550;7.208;2023-10-19T04:42:43;14.98;80.63
70830;SHT30;58451;51.550;7.208;2023-10-19T04:44:17;14.97;80.65
70830;SHT30;58451;51.550;7.208;2023-10-19T04:45:49;14.97;80.58
70830;SHT30;58451;51.550;7.208;2023-10-19T04:47:21;14.99;80.55
70830;SHT30;58451;51.550;7.208;2023-10-19T04:48:56;15.00;80.55
70830;SHT30;58451;51.550;7.208;2023-10-19T04:50:28;15.01;80.53
70830;SHT30;58451;51.550;7.208;2023-10-19T04:52:00;14.99;80.52
70830;SHT30;58451;51.550;7.208;2023-10-19T04:53:32;15.00;80.50
70830;SHT30;58451;51.550;7.208;2023-10-19T04:55:04;15.01;80.42
70830;SHT30;58451;51.550;7.208;2023-10-19T04:56:37;15.02;80.40
70830;SHT30;58451;51.550;7.208;2023-10-19T04:58:09;15.02;80.37
70830;SHT30;58451;51.550;7.208;2023-10-19T04:59:41;15.02;80.33
70830;SHT30;58451;51.550;7.208;2023-10-19T05:01:16;15.02;80.37
70830;SHT30;58451;51.550;7.208;2023-10-19T05:02:48;15.02;80.43
70830;SHT30;58451;51.550;7.208;2023-10-19T05:04:21;15.03;80.33
70830;SHT30;58451;51.550;7.208;2023-10-19T05:05:53;15.03;80.32
70830;SHT30;58451;51.550;7.208;2023-10-19T05:07:26;15.03;80.27
70830;SHT30;58451;51.550;7.208;2023-10-19T05:08:58;15.04;80.28
70830;SHT30;58451;51.550;7.208;2023-10-19T05:10:30;15.03;80.28
70830;SHT30;58451;51.550;7.208;2023-10-19T05:12:01;15.03;80.22
70830;SHT30;58451;51.550;7.208;2023-10-19T05:13:34;15.04;80.20
70830;SHT30;58451;51.550;7.208;2023-10-19T05:15:07;15.03;80.15
70830;SHT30;58451;51.550;7.208;2023-10-19T05:16:39;15.04;80.10
70830;SHT30;58451;51.550;7.208;2023-10-19T05:18:12;15.03;80.10
70830;SHT30;58451;51.550;7.208;2023-10-19T05:19:44;15.04;80.10
70830;SHT30;58451;51.550;7.208;2023-10-19T05:21:15;15.03;80.07
70830;SHT30;58451;51.550;7.208;2023-10-19T05:22:47;15.03;80.07
70830;SHT30;58451;51.550;7.208;2023-10-19T05:24:19;15.03;80.03
70830;SHT30;58451;51.550;7.208;2023-10-19T05:25:51;15.02;80.03
70830;SHT30;58451;51.550;7.208;2023-10-19T05:27:30;15.01;80.00
70830;SHT30;58451;51.550;7.208;2023-10-19T05:29:03;15.00;80.02
70830;SHT30;58451;51.550;7.208;2023-10-19T05:30:35;14.98;80.03
70830;SHT30;58451;51.550;7.208;2023-10-19T05:32:07;14.95;80.00
70830;SHT30;58451;51.550;7.208;2023-10-19T05:33:41;14.94;80.00
70830;SHT30;58451;51.550;7.208;2023-10-19T05:35:13;14.93;80.00
70830;SHT30;58451;51.550;7.208;2023-10-19T05:36:54;14.93;80.00
70830;SHT30;58451;51.550;7.208;2023-10-19T05:38:29;14.92;79.98
70830;SHT30;58451;51.550;7.208;2023-10-19T05:40:03;14.90;80.00
70830;SHT30;58451;51.550;7.208;2023-10-19T05:41:36;14.90;80.00
70830;SHT30;58451;51.550;7.208;2023-10-19T05:43:10;14.90;80.03
70830;SHT30;58451;51.550;7.208;2023-10-19T05:44:43;14.90;80.07
70830;SHT30;58451;51.550;7.208;2023-10-19T05:46:15;14.89;80.02
70830;SHT30;58451;51.550;7.208;2023-10-19T05:47:52;14.89;80.02
70830;SHT30;58451;51.550;7.208;2023-10-19T05:49:24;14.88;80.00
70830;SHT30;58451;51.550;7.208;2023-10-19T05:50:56;14.87;80.02
70830;SHT30;58451;51.550;7.208;2023-10-19T05:52:28;14.85;80.03
70830;SHT30;58451;51.550;7.208;2023-10-19T05:54:01;14.83;80.02
70830;SHT30;58451;51.550;7.208;2023-10-19T05:55:36;14.82;80.03
70830;SHT30;58451;51.550;7.208;2023-10-19T05:57:07;14.81;80.00
70830;SHT30;58451;51.550;7.208;2023-10-19T05:58:40;14.79;80.02
70830;SHT30;58451;51.550;7.208;2023-10-19T06:00:12;14.78;80.00
70830;SHT30;58451;51.550;7.208;2023-10-19T06:01:45;14.76;80.00
70830;SHT30;58451;51.550;7.208;2023-10-19T06:03:18;14.75;80.02
70830;SHT30;58451;51.550;7.208;2023-10-19T06:04:50;14.73;80.03
70830;SHT30;58451;51.550;7.208;2023-10-19T06:06:22;14.72;80.07
70830;SHT30;58451;51.550;7.208;2023-10-19T06:07:55;14.72;80.07
70830;SHT30;58451;51.550;7.208;2023-10-19T06:09:27;14.71;80.10
70830;SHT30;58451;51.550;7.208;2023-10-19T06:11:01;14.69;80.08
70830;SHT30;58451;51.550;7.208;2023-10-19T06:12:33;14.67;80.08
70830;SHT30;58451;51.550;7.208;2023-10-19T06:14:05;14.66;80.10
70830;SHT30;58451;51.550;7.208;2023-10-19T06:15:38;14.66;80.12
70830;SHT30;58451;51.550;7.208;2023-10-19T06:17:10;14.66;80.12
70830;SHT30;58451;51.550;7.208;2023-10-19T06:18:43;14.65;80.13
70830;SHT30;58451;51.550;7.208;2023-10-19T06:20:15;14.65;80.13
70830;SHT30;58451;51.550;7.208;2023-10-19T06:21:58;14.64;80.13
70830;SHT30;58451;51.550;7.208;2023-10-19T06:23:31;14.64;80.18
70830;SHT30;58451;51.550;7.208;2023-10-19T06:25:03;14.65;80.22
70830;SHT30;58451;51.550;7.208;2023-10-19T06:26:38;14.65;80.20
70830;SHT30;58451;51.550;7.208;2023-10-19T06:28:10;14.68;80.25
70830;SHT30;58451;51.550;7.208;2023-10-19T06:29:42;14.70;80.50
70830;SHT30;58451;51.550;7.208;2023-10-19T06:31:15;14.73;80.42
70830;SHT30;58451;51.550;7.208;2023-10-19T06:32:48;14.74;80.38
70830;SHT30;58451;51.550;7.208;2023-10-19T06:34:31;14.77;80.40
70830;SHT30;58451;51.550;7.208;2023-10-19T06:36:04;14.82;80.40
70830;SHT30;58451;51.550;7.208;2023-10-19T06:37:36;14.84;80.37
70830;SHT30;58451;51.550;7.208;2023-10-19T06:39:08;14.85;80.50
70830;SHT30;58451;51.550;7.208;2023-10-19T06:40:40;14.87;80.42
70830;SHT30;58451;51.550;7.208;2023-10-19T06:42:12;14.90;80.42
70830;SHT30;58451;51.550;7.208;2023-10-19T06:43:46;14.92;80.40
70830;SHT30;58451;51.550;7.208;2023-10-19T06:45:19;14.93;80.37
70830;SHT30;58451;51.550;7.208;2023-10-19T06:46:50;14.95;80.37
70830;SHT30;58451;51.550;7.208;2023-10-19T06:48:22;14.96;80.32
70830;SHT30;58451;51.550;7.208;2023-10-19T06:49:54;14.98;80.35
70830;SHT30;58451;51.550;7.208;2023-10-19T06:51:27;15.00;80.43
70830;SHT30;58451;51.550;7.208;2023-10-19T06:52:59;15.01;80.38
70830;SHT30;58451;51.550;7.208;2023-10-19T06:54:31;15.02;80.35
70830;SHT30;58451;51.550;7.208;2023-10-19T06:56:04;15.06;80.33
70830;SHT30;58451;51.550;7.208;2023-10-19T06:57:36;15.09;80.32
70830;SHT30;58451;51.550;7.208;2023-10-19T06:59:08;15.11;80.33
70830;SHT30;58451;51.550;7.208;2023-10-19T07:00:39;15.14;80.28
70830;SHT30;58451;51.550;7.208;2023-10-19T07:02:18;15.18;80.23
70830;SHT30;58451;51.550;7.208;2023-10-19T07:03:52;15.20;80.22
70830;SHT30;58451;51.550;7.208;2023-10-19T07:05:25;15.23;80.22
70830;SHT30;58451;51.550;7.208;2023-10-19T07:07:00;15.25;80.17
70830;SHT30;58451;51.550;7.208;2023-10-19T07:08:32;15.28;80.13
70830;SHT30;58451;51.550;7.208;2023-10-19T07:10:04;15.29;80.10
70830;SHT30;58451;51.550;7.208;2023-10-19T07:11:37;15.31;80.10
70830;SHT30;58451;51.550;7.208;2023-10-19T07:13:09;15.34;80.07
70830;SHT30;58451;51.550;7.208;2023-10-19T07:14:41;15.36;80.07
70830;SHT30;58451;51.550;7.208;2023-10-19T07:16:13;15.39;80.00
70830;SHT30;58451;51.550;7.208;2023-10-19T07:17:46;15.42;79.97
70830;SHT30;58451;51.550;7.208;2023-10-19T07:19:19;15.43;79.95
70830;SHT30;58451;51.550;7.208;2023-10-19T07:20:51;15.46;79.88
70830;SHT30;58451;51.550;7.208;2023-10-19T07:22:24;15.48;79.80
70830;SHT30;58451;51.550;7.208;2023-10-19T07:23:56;15.51;79.78
70830;SHT30;58451;51.550;7.208;2023-10-19T07:25:33;15.54;79.75
70830;SHT30;58451;51.550;7.208;2023-10-19T07:27:17;15.58;79.72
70830;SHT30;58451;51.550;7.208;2023-10-19T07:29:07;15.60;79.68
70830;SHT30;58451;51.550;7.208;2023-10-19T07:30:42;15.63;79.65
70830;SHT30;58451;51.550;7.208;2023-10-19T07:32:15;15.65;79.62
70830;SHT30;58451;51.550;7.208;2023-10-19T07:33:49;15.69;79.62
70830;SHT30;58451;51.550;7.208;2023-10-19T07:35:22;15.71;79.62
70830;SHT30;58451;51.550;7.208;2023-10-19T07:36:54;15.74;79.53
70830;SHT30;58451;51.550;7.208;2023-10-19T07:38:26;15.77;79.47
70830;SHT30;58451;51.550;7.208;2023-10-19T07:40:00;15.78;79.40
70830;SHT30;58451;51.550;7.208;2023-10-19T07:41:32;15.81;79.25
70830;SHT30;58451;51.550;7.208;2023-10-19T07:43:07;15.82;79.15
70830;SHT30;58451;51.550;7.208;2023-10-19T07:44:40;15.84;79.13
70830;SHT30;58451;51.550;7.208;2023-10-19T07:46:12;15.84;79.03
70830;SHT30;58451;51.550;7.208;2023-10-19T07:47:44;15.86;79.13
70830;SHT30;58451;51.550;7.208;2023-10-19T07:49:22;15.88;79.13
70830;SHT30;58451;51.550;7.208;2023-10-19T07:50:57;15.90;79.12
70830;SHT30;58451;51.550;7.208;2023-10-19T07:52:29;15.92;79.08
70830;SHT30;58451;51.550;7.208;2023-10-19T07:54:00;15.94;79.10
70830;SHT30;58451;51.550;7.208;2023-10-19T07:55:32;15.96;79.10
70830;SHT30;58451;51.550;7.208;2023-10-19T07:57:04;15.96;78.98
70830;SHT30;58451;51.550;7.208;2023-10-19T07:58:39;15.97;79.07
70830;SHT30;58451;51.550;7.208;2023-10-19T08:00:13;15.98;79.07
70830;SHT30;58451;51.550;7.208;2023-10-19T08:01:48;16.00;79.08
70830;SHT30;58451;51.550;7.208;2023-10-19T08:03:20;16.03;79.05
70830;SHT30;58451;51.550;7.208;2023-10-19T08:04:53;16.07;79.02
70830;SHT30;58451;51.550;7.208;2023-10-19T08:06:25;16.08;78.88
70830;SHT30;58451;51.550;7.208;2023-10-19T08:07:57;16.16;78.75
70830;SHT30;58451;51.550;7.208;2023-10-19T08:09:31;16.22;78.73
70830;SHT30;58451;51.550;7.208;2023-10-19T08:11:06;16.25;78.62
70830;SHT30;58451;51.550;7.208;2023-10-19T08:12:40;16.31;78.43
70830;SHT30;58451;51.550;7.208;2023-10-19T08:14:13;16.35;78.53
70830;SHT30;58451;51.550;7.208;2023-10-19T08:15:45;16.38;78.52
70830;SHT30;58451;51.550;7.208;2023-10-19T08:17:17;16.40;78.55
70830;SHT30;58451;51.550;7.208;2023-10-19T08:18:49;16.43;78.42
70830;SHT30;58451;51.550;7.208;2023-10-19T08:20:21;16.45;78.03
70830;SHT30;58451;51.550;7.208;2023-10-19T08:22:03;16.49;78.18
70830;SHT30;58451;51.550;7.208;2023-10-19T08:23:36;16.53;78.22
70830;SHT30;58451;51.550;7.208;2023-10-19T08:25:08;16.57;78.23
70830;SHT30;58451;51.550;7.208;2023-10-19T08:26:45;16.59;78.22
70830;SHT30;58451;51.550;7.208;2023-10-19T08:28:17;16.61;78.20
70830;SHT30;58451;51.550;7.208;2023-10-19T08:29:49;16.64;78.15
70830;SHT30;58451;51.550;7.208;2023-10-19T08:31:21;16.67;78.12
70830;SHT30;58451;51.550;7.208;2023-10-19T08:32:53;16.68;78.12
70830;SHT30;58451;51.550;7.208;2023-10-19T08:34:25;16.70;78.05
70830;SHT30;58451;51.550;7.208;2023-10-19T08:35:57;16.72;78.00
70830;SHT30;58451;51.550;7.208;2023-10-19T08:37:31;16.74;77.93
70830;SHT30;58451;51.550;7.208;2023-10-19T08:39:04;16.77;77.93
70830;SHT30;58451;51.550;7.208;2023-10-19T08:40:40;16.81;77.83
70830;SHT30;58451;51.550;7.208;2023-10-19T08:42:12;16.88;77.77
70830;SHT30;58451;51.550;7.208;2023-10-19T08:43:44;16.96;77.67
70830;SHT30;58451;51.550;7.208;2023-10-19T08:45:16;17.04;77.55
70830;SHT30;58451;51.550;7.208;2023-10-19T08:46:48;17.10;77.43
70830;SHT30;58451;51.550;7.208;2023-10-19T08:48:20;17.13;77.35
70830;SHT30;58451;51.550;7.208;2023-10-19T08:49:53;17.16;77.33
70830;SHT30;58451;51.550;7.208;2023-10-19T08:51:25;17.21;77.28
70830;SHT30;58451;51.550;7.208;2023-10-19T08:52:58;17.28;77.23
70830;SHT30;58451;51.550;7.208;2023-10-19T08:54:34;17.36;77.12
70830;SHT30;58451;51.550;7.208;2023-10-19T08:56:07;17.45;77.03
70830;SHT30;58451;51.550;7.208;2023-10-19T08:57:39;17.53;76.83
70830;SHT30;58451;51.550;7.208;2023-10-19T08:59:12;17.60;76.77
70830;SHT30;58451;51.550;7.208;2023-10-19T09:00:47;17.70;76.73
70830;SHT30;58451;51.550;7.208;2023-10-19T09:02:27;17.77;76.65
70830;SHT30;58451;51.550;7.208;2023-10-19T09:03:58;17.83;76.33
70830;SHT30;58451;51.550;7.208;2023-10-19T09:05:30;17.91;76.18
70830;SHT30;58451;51.550;7.208;2023-10-19T09:07:02;17.97;76.08
70830;SHT30;58451;51.550;7.208;2023-10-19T09:08:41;18.03;75.97
70830;SHT30;58451;51.550;7.208;2023-10-19T09:10:16;18.11;75.85
70830;SHT30;58451;51.550;7.208;2023-10-19T09:11:48;18.19;75.85
70830;SHT30;58451;51.550;7.208;2023-10-19T09:13:20;18.26;75.00
70830;SHT30;58451;51.550;7.208;2023-10-19T09:14:54;18.34;75.25
70830;SHT30;58451;51.550;7.208;2023-10-19T09:16:28;18.41;74.12
70830;SHT30;58451;51.550;7.208;2023-10-19T09:19:50;18.49;73.38
70830;SHT30;58451;51.550;7.208;2023-10-19T09:21:22;18.57;73.83
70830;SHT30;58451;51.550;7.208;2023-10-19T09:22:57;18.63;73.20
70830;SHT30;58451;51.550;7.208;2023-10-19T09:24:29;18.67;72.45
70830;SHT30;58451;51.550;7.208;2023-10-19T09:26:03;18.64;71.83
70830;SHT30;58451;51.550;7.208;2023-10-19T09:27:39;18.69;73.20
70830;SHT30;58451;51.550;7.208;2023-10-19T09:29:12;18.72;73.48
70830;SHT30;58451;51.550;7.208;2023-10-19T09:30:50;18.73;71.78
70830;SHT30;58451;51.550;7.208;2023-10-19T09:32:23;18.78;71.87
70830;SHT30;58451;51.550;7.208;2023-10-19T09:33:55;18.85;72.62
70830;SHT30;58451;51.550;7.208;2023-10-19T09:35:28;18.94;72.82
70830;SHT30;58451;51.550;7.208;2023-10-19T09:37:03;19.06;72.93
70830;SHT30;58451;51.550;7.208;2023-10-19T09:38:36;19.18;72.90
70830;SHT30;58451;51.550;7.208;2023-10-19T09:40:08;19.32;72.73
70830;SHT30;58451;51.550;7.208;2023-10-19T09:41:44;19.45;72.25
70830;SHT30;58451;51.550;7.208;2023-10-19T09:43:33;19.59;71.87
70830;SHT30;58451;51.550;7.208;2023-10-19T09:45:12;19.74;71.83
70830;SHT30;58451;51.550;7.208;2023-10-19T09:46:50;19.85;70.67
70830;SHT30;58451;51.550;7.208;2023-10-19T09:48:27;19.93;70.42
70830;SHT30;58451;51.550;7.208;2023-10-19T09:50:00;20.00;71.00
70830;SHT30;58451;51.550;7.208;2023-10-19T09:51:33;20.07;70.63
70830;SHT30;58451;51.550;7.208;2023-10-19T09:53:06;20.15;70.27
70830;SHT30;58451;51.550;7.208;2023-10-19T09:56:24;20.37;69.50
70830;SHT30;58451;51.550;7.208;2023-10-19T09:58:19;20.47;69.25
70830;SHT30;58451;51.550;7.208;2023-10-19T09:59:57;20.52;67.82
70830;SHT30;58451;51.550;7.208;2023-10-19T10:02:04;20.60;68.57